sensor_id;sensor_type;location;lat;lon;timestamp;temperature;humidity
40808;DHT22;26523;52.504;13.498;2023-07-28T00:00:38;16.20;99.90
40808;DHT22;26523;52.504;13.498;2023-07-28T00:03:04;16.20;99.90
40808;DHT22;26523;52.504;13.498;2023-07-28T00:05:29;16.20;99.90
40808;DHT22;26523;52.504;13.498;2023-07-28T00:07:55;16.20;99.90
40808;DHT22;26523;52.504;13.498;2023-07-28T00:10:21;16.20;99.90
40808;DHT22;26523;52.504;13.498;2023-07-28T00:12:46;16.20;99.90
40808;DHT22;26523;52.504;13.498;2023-07-28T00:15:12;16.20;99.90
40808;DHT22;26523;52.504;13.498;2023-07-28T00:17:39;16.30;99.90
40808;DHT22;26523;52.504;13.498;2023-07-28T00:20:08;16.20;99.90
40808;DHT22;26523;52.504;13.498;2023-07-28T00:22:34;16.30;99.90
40808;DHT22;26523;52.504;13.498;2023-07-28T00:25:01;16.30;99.90
40808;DHT22;26523;52.504;13.498;2023-07-28T00:27:26;16.30;99.90
40808;DHT22;26523;52.504;13.498;2023-07-28T00:29:52;16.30;99.90
40808;DHT22;26523;52.504;13.498;2023-07-28T00:32:19;16.20;99.90
40808;DHT22;26523;52.504;13.498;2023-07-28T00:34:45;16.20;99.90
40808;DHT22;26523;52.504;13.498;2023-07-28T00:37:10;16.20;99.90
40808;DHT22;26523;52.504;13.498;2023-07-28T00:39:36;16.20;99.90
40808;DHT22;26523;52.504;13.498;2023-07-28T00:42:01;16.20;99.90
40808;DHT22;26523;52.504;13.498;2023-07-28T00:44:33;16.20;99.90
40808;DHT22;26523;52.504;13.498;2023-07-28T00:47:01;16.20;99.90
40808;DHT22;26523;52.504;13.498;2023-07-28T00:49:30;16.20;99.90
40808;DHT22;26523;52.504;13.498;2023-07-28T00:51:56;16.20;99.90
40808;DHT22;26523;52.504;13.498;2023-07-28T00:54:29;16.30;99.90
40808;DHT22;26523;52.504;13.498;2023-07-28T00:56:55;16.30;99.90
40808;DHT22;26523;52.504;13.498;2023-07-28T00:59:22;16.30;99.90
40808;DHT22;26523;52.504;13.498;2023-07-28T01:01:48;16.30;99.90
40808;DHT22;26523;52.504;13.498;2023-07-28T01:04:24;16.30;99.90
40808;DHT22;26523;52.504;13.498;2023-07-28T01:07:08;16.30;99.90
40808;DHT22;26523;52.504;13.498;2023-07-28T01:09:50;16.30;99.90
40808;DHT22;26523;52.504;13.498;2023-07-28T01:12:18;16.30;99.90
40808;DHT22;26523;52.504;13.498;2023-07-28T01:14:44;16.40;99.90
40808;DHT22;26523;52.504;13.498;2023-07-28T01:17:11;16.40;99.90
40808;DHT22;26523;52.504;13.498;2023-07-28T01:19:37;16.30;99.90
40808;DHT22;26523;52.504;13.498;2023-07-28T01:22:39;16.40;99.90
40808;DHT22;26523;52.504;13.498;2023-07-28T01:28:07;16.40;99.90
40808;DHT22;26523;52.504;13.498;2023-07-28T01:30:33;16.40;99.90
40808;DHT22;26523;52.504;13.498;2023-07-28T01:32:59;16.50;99.90
40808;DHT22;26523;52.504;13.498;2023-07-28T01:35:27;16.40;99.90
40808;DHT22;26523;52.504;13.498;2023-07-28T01:37:54;16.50;99.90
40808;DHT22;26523;52.504;13.498;2023-07-28T01:40:20;16.50;99.90
40808;DHT22;26523;52.504;13.498;2023-07-28T01:42:46;16.50;99.90
40808;DHT22;26523;52.504;13.498;2023-07-28T01:45:12;16.50;99.90
40808;DHT22;26523;52.504;13.498;2023-07-28T01:47:37;16.60;99.90
40808;DHT22;26523;52.504;13.498;2023-07-28T01:50:04;16.60;99.90
40808;DHT22;26523;52.504;13.498;2023-07-28T01:52:31;16.60;99.90
40808;DHT22;26523;52.504;13.498;2023-07-28T01:54:59;16.60;99.90
40808;DHT22;26523;52.504;13.498;2023-07-28T01:57:27;16.60;99.90
40808;DHT22;26523;52.504;13.498;2023-07-28T01:59:54;16.60;99.90
40808;DHT22;26523;52.504;13.498;2023-07-28T02:02:20;16.60;99.90
40808;DHT22;26523;52.504;13.498;2023-07-28T02:04:45;16.60;99.90
40808;DHT22;26523;52.504;13.498;2023-07-28T02:07:11;16.60;99.90
40808;DHT22;26523;52.504;13.498;2023-07-28T02:09:37;16.60;99.90
40808;DHT22;26523;52.504;13.498;2023-07-28T02:12:03;16.60;99.90
40808;DHT22;26523;52.504;13.498;2023-07-28T02:14:28;16.60;99.90
40808;DHT22;26523;52.504;13.498;2023-07-28T02:16:54;16.60;99.90
40808;DHT22;26523;52.504;13.498;2023-07-28T02:19:20;16.60;99.90
40808;DHT22;26523;52.504;13.498;2023-07-28T02:21:45;16.60;99.90
40808;DHT22;26523;52.504;13.498;2023-07-28T02:24:11;16.60;99.90
40808;DHT22;26523;52.504;13.498;2023-07-28T02:26:37;16.60;99.90
40808;DHT22;26523;52.504;13.498;2023-07-28T02:29:02;16.60;99.90
40808;DHT22;26523;52.504;13.498;2023-07-28T02:31:28;16.60;99.90
40808;DHT22;26523;52.504;13.498;2023-07-28T02:33:54;16.60;99.90
40808;DHT22;26523;52.504;13.498;2023-07-28T02:36:20;16.70;99.90
40808;DHT22;26523;52.504;13.498;2023-07-28T02:38:46;16.60;99.90
40808;DHT22;26523;52.504;13.498;2023-07-28T02:41:11;16.70;99.90
40808;DHT22;26523;52.504;13.498;2023-07-28T02:43:37;16.70;99.90
40808;DHT22;26523;52.504;13.498;2023-07-28T02:46:02;16.70;99.90
40808;DHT22;26523;52.504;13.498;2023-07-28T02:48:28;16.70;99.90
40808;DHT22;26523;52.504;13.498;2023-07-28T02:50:54;16.70;99.90
40808;DHT22;26523;52.504;13.498;2023-07-28T02:53:19;16.70;99.90
40808;DHT22;26523;52.504;13.498;2023-07-28T02:55:47;16.70;99.90
40808;DHT22;26523;52.504;13.498;2023-07-28T02:58:13;16.70;99.90
40808;DHT22;26523;52.504;13.498;2023-07-28T03:00:40;16.70;99.90
40808;DHT22;26523;52.504;13.498;2023-07-28T03:03:08;16.80;99.90
40808;DHT22;26523;52.504;13.498;2023-07-28T03:05:39;16.80;99.90
40808;DHT22;26523;52.504;13.498;2023-07-28T03:08:05;16.70;99.90
40808;DHT22;26523;52.504;13.498;2023-07-28T03:10:31;16.80;99.90
40808;DHT22;26523;52.504;13.498;2023-07-28T03:12:57;16.80;99.90
40808;DHT22;26523;52.504;13.498;2023-07-28T03:15:26;16.80;99.90
40808;DHT22;26523;52.504;13.498;2023-07-28T03:17:51;16.70;99.90
40808;DHT22;26523;52.504;13.498;2023-07-28T03:20:19;16.80;99.90
40808;DHT22;26523;52.504;13.498;2023-07-28T03:22:45;16.80;99.90
40808;DHT22;26523;52.504;13.498;2023-07-28T03:25:11;16.80;99.90
40808;DHT22;26523;52.504;13.498;2023-07-28T03:27:37;16.80;99.90
40808;DHT22;26523;52.504;13.498;2023-07-28T03:30:04;16.80;99.90
40808;DHT22;26523;52.504;13.498;2023-07-28T03:32:32;16.80;99.90
40808;DHT22;26523;52.504;13.498;2023-07-28T03:34:58;16.80;99.90
40808;DHT22;26523;52.504;13.498;2023-07-28T03:37:23;16.80;99.90
40808;DHT22;26523;52.504;13.498;2023-07-28T03:39:49;16.80;99.90
40808;DHT22;26523;52.504;13.498;2023-07-28T03:42:16;16.80;99.90
40808;DHT22;26523;52.504;13.498;2023-07-28T03:44:42;16.90;99.90
40808;DHT22;26523;52.504;13.498;2023-07-28T03:47:08;16.80;99.90
40808;DHT22;26523;52.504;13.498;2023-07-28T03:49:33;16.80;99.90
40808;DHT22;26523;52.504;13.498;2023-07-28T03:52:01;16.80;99.90
40808;DHT22;26523;52.504;13.498;2023-07-28T03:54:27;16.80;99.90
40808;DHT22;26523;52.504;13.498;2023-07-28T03:56:53;16.80;99.90
40808;DHT22;26523;52.504;13.498;2023-07-28T03:59:19;16.90;99.90
40808;DHT22;26523;52.504;13.498;2023-07-28T04:01:45;16.90;99.90
40808;DHT22;26523;52.504;13.498;2023-07-28T04:04:12;16.90;99.90
40808;DHT22;26523;52.504;13.498;2023-07-28T04:06:46;16.90;99.90
40808;DHT22;26523;52.504;13.498;2023-07-28T04:09:13;16.90;99.90
40808;DHT22;26523;52.504;13.498;2023-07-28T04:11:40;16.90;99.90
40808;DHT22;26523;52.504;13.498;2023-07-28T04:14:05;17.00;99.90
40808;DHT22;26523;52.504;13.498;2023-07-28T04:16:32;17.00;99.90
40808;DHT22;26523;52.504;13.498;2023-07-28T04:18:59;17.00;99.90
40808;DHT22;26523;52.504;13.498;2023-07-28T04:21:26;17.00;99.90
40808;DHT22;26523;52.504;13.498;2023-07-28T04:23:52;17.00;99.90
40808;DHT22;26523;52.504;13.498;2023-07-28T04:26:18;17.00;99.90
40808;DHT22;26523;52.504;13.498;2023-07-28T04:28:45;17.00;99.90
40808;DHT22;26523;52.504;13.498;2023-07-28T04:31:12;17.10;99.90
40808;DHT22;26523;52.504;13.498;2023-07-28T04:33:41;17.10;99.90
40808;DHT22;26523;52.504;13.498;2023-07-28T04:36:07;17.10;99.90
40808;DHT22;26523;52.504;13.498;2023-07-28T04:38:32;17.10;99.90
40808;DHT22;26523;52.504;13.498;2023-07-28T04:40:58;17.10;99.90
40808;DHT22;26523;52.504;13.498;2023-07-28T04:43:25;17.20;99.90
40808;DHT22;26523;52.504;13.498;2023-07-28T04:45:51;17.20;99.90
40808;DHT22;26523;52.504;13.498;2023-07-28T04:48:16;17.30;99.90
40808;DHT22;26523;52.504;13.498;2023-07-28T04:50:42;17.30;99.90
40808;DHT22;26523;52.504;13.498;2023-07-28T04:53:09;17.40;99.90
40808;DHT22;26523;52.504;13.498;2023-07-28T04:55:34;17.40;99.90
40808;DHT22;26523;52.504;13.498;2023-07-28T04:58:00;17.40;99.90
40808;DHT22;26523;52.504;13.498;2023-07-28T05:00:25;17.50;99.90
40808;DHT22;26523;52.504;13.498;2023-07-28T05:02:51;17.50;99.90
40808;DHT22;26523;52.504;13.498;2023-07-28T05:05:17;17.40;99.90
40808;DHT22;26523;52.504;13.498;2023-07-28T05:07:42;17.40;99.90
40808;DHT22;26523;52.504;13.498;2023-07-28T05:10:08;17.40;99.90
40808;DHT22;26523;52.504;13.498;2023-07-28T05:12:34;17.40;99.90
40808;DHT22;26523;52.504;13.498;2023-07-28T05:15:00;17.50;99.90
40808;DHT22;26523;52.504;13.498;2023-07-28T05:17:26;17.50;99.90
40808;DHT22;26523;52.504;13.498;2023-07-28T05:19:51;17.50;99.90
40808;DHT22;26523;52.504;13.498;2023-07-28T05:22:17;17.50;99.90
40808;DHT22;26523;52.504;13.498;2023-07-28T05:24:43;17.60;99.90
40808;DHT22;26523;52.504;13.498;2023-07-28T05:27:10;17.50;99.90
40808;DHT22;26523;52.504;13.498;2023-07-28T05:29:36;17.50;99.90
40808;DHT22;26523;52.504;13.498;2023-07-28T05:32:02;17.70;99.90
40808;DHT22;26523;52.504;13.498;2023-07-28T05:34:29;17.70;99.90
40808;DHT22;26523;52.504;13.498;2023-07-28T05:36:56;17.70;99.90
40808;DHT22;26523;52.504;13.498;2023-07-28T05:39:21;17.70;99.90
40808;DHT22;26523;52.504;13.498;2023-07-28T05:41:47;17.70;99.90
40808;DHT22;26523;52.504;13.498;2023-07-28T05:44:13;17.80;99.90
40808;DHT22;26523;52.504;13.498;2023-07-28T05:46:40;17.80;99.90
40808;DHT22;26523;52.504;13.498;2023-07-28T05:49:06;17.70;99.90
40808;DHT22;26523;52.504;13.498;2023-07-28T05:51:32;17.70;99.90
40808;DHT22;26523;52.504;13.498;2023-07-28T05:53:58;17.80;99.90
40808;DHT22;26523;52.504;13.498;2023-07-28T05:56:23;17.80;99.90
40808;DHT22;26523;52.504;13.498;2023-07-28T05:58:49;17.80;99.90
40808;DHT22;26523;52.504;13.498;2023-07-28T06:01:16;17.80;99.90
40808;DHT22;26523;52.504;13.498;2023-07-28T06:03:42;17.80;99.90
40808;DHT22;26523;52.504;13.498;2023-07-28T06:06:08;17.90;99.90
40808;DHT22;26523;52.504;13.498;2023-07-28T06:08:34;17.90;99.90
40808;DHT22;26523;52.504;13.498;2023-07-28T06:11:00;17.90;99.90
40808;DHT22;26523;52.504;13.498;2023-07-28T06:13:25;17.90;99.90
40808;DHT22;26523;52.504;13.498;2023-07-28T06:15:53;17.90;99.90
40808;DHT22;26523;52.504;13.498;2023-07-28T06:18:20;17.80;99.90
40808;DHT22;26523;52.504;13.498;2023-07-28T06:20:47;17.80;99.90
40808;DHT22;26523;52.504;13.498;2023-07-28T06:23:13;17.80;99.90
40808;DHT22;26523;52.504;13.498;2023-07-28T06:25:39;17.80;99.90
40808;DHT22;26523;52.504;13.498;2023-07-28T06:28:09;17.80;99.90
40808;DHT22;26523;52.504;13.498;2023-07-28T06:30:36;17.80;99.90
40808;DHT22;26523;52.504;13.498;2023-07-28T06:33:02;17.80;99.90
40808;DHT22;26523;52.504;13.498;2023-07-28T06:35:30;17.70;99.90
40808;DHT22;26523;52.504;13.498;2023-07-28T06:37:56;17.70;99.90
40808;DHT22;26523;52.504;13.498;2023-07-28T06:40:21;17.80;99.90
40808;DHT22;26523;52.504;13.498;2023-07-28T06:42:47;17.80;99.90
40808;DHT22;26523;52.504;13.498;2023-07-28T06:45:13;17.80;99.90
40808;DHT22;26523;52.504;13.498;2023-07-28T06:47:39;17.80;99.90
40808;DHT22;26523;52.504;13.498;2023-07-28T06:50:05;17.90;99.90
40808;DHT22;26523;52.504;13.498;2023-07-28T06:52:31;17.90;99.90
40808;DHT22;26523;52.504;13.498;2023-07-28T06:54:57;18.00;99.90
40808;DHT22;26523;52.504;13.498;2023-07-28T06:57:22;18.10;99.90
40808;DHT22;26523;52.504;13.498;2023-07-28T06:59:50;18.10;99.90
40808;DHT22;26523;52.504;13.498;2023-07-28T07:02:15;18.00;99.90
40808;DHT22;26523;52.504;13.498;2023-07-28T07:04:42;18.10;99.90
40808;DHT22;26523;52.504;13.498;2023-07-28T07:07:08;18.10;99.90
40808;DHT22;26523;52.504;13.498;2023-07-28T07:09:34;18.20;99.90
40808;DHT22;26523;52.504;13.498;2023-07-28T07:12:00;18.30;99.90
40808;DHT22;26523;52.504;13.498;2023-07-28T07:14:26;18.50;99.90
40808;DHT22;26523;52.504;13.498;2023-07-28T07:16:51;18.90;99.90
40808;DHT22;26523;52.504;13.498;2023-07-28T07:19:17;19.20;99.90
40808;DHT22;26523;52.504;13.498;2023-07-28T07:21:42;19.40;99.90
40808;DHT22;26523;52.504;13.498;2023-07-28T07:24:10;19.60;99.90
40808;DHT22;26523;52.504;13.498;2023-07-28T07:26:41;19.70;99.90
40808;DHT22;26523;52.504;13.498;2023-07-28T07:29:10;19.70;99.90
40808;DHT22;26523;52.504;13.498;2023-07-28T07:31:36;19.70;99.90
40808;DHT22;26523;52.504;13.498;2023-07-28T07:34:01;19.70;99.90
40808;DHT22;26523;52.504;13.498;2023-07-28T07:36:31;19.60;99.90
40808;DHT22;26523;52.504;13.498;2023-07-28T07:38:58;19.50;99.90
40808;DHT22;26523;52.504;13.498;2023-07-28T07:41:24;19.60;99.90
40808;DHT22;26523;52.504;13.498;2023-07-28T07:43:52;19.80;99.90
40808;DHT22;26523;52.504;13.498;2023-07-28T07:46:18;19.90;99.90
40808;DHT22;26523;52.504;13.498;2023-07-28T07:48:45;20.00;99.90
40808;DHT22;26523;52.504;13.498;2023-07-28T07:51:11;20.10;99.90
40808;DHT22;26523;52.504;13.498;2023-07-28T07:53:37;20.30;99.90
40808;DHT22;26523;52.504;13.498;2023-07-28T07:56:06;21.10;99.90
40808;DHT22;26523;52.504;13.498;2023-07-28T07:58:32;21.60;99.90
40808;DHT22;26523;52.504;13.498;2023-07-28T08:00:59;21.70;99.90
40808;DHT22;26523;52.504;13.498;2023-07-28T08:03:24;22.00;99.90
40808;DHT22;26523;52.504;13.498;2023-07-28T08:05:51;22.10;99.90
40808;DHT22;26523;52.504;13.498;2023-07-28T08:08:17;21.80;99.90
40808;DHT22;26523;52.504;13.498;2023-07-28T08:10:51;21.60;99.90
40808;DHT22;26523;52.504;13.498;2023-07-28T08:13:19;21.60;99.90
40808;DHT22;26523;52.504;13.498;2023-07-28T08:15:46;22.10;99.90
40808;DHT22;26523;52.504;13.498;2023-07-28T08:18:12;23.10;99.90
40808;DHT22;26523;52.504;13.498;2023-07-28T08:20:38;24.40;99.90
40808;DHT22;26523;52.504;13.498;2023-07-28T08:23:04;25.40;99.90
40808;DHT22;26523;52.504;13.498;2023-07-28T08:25:29;25.60;99.90
40808;DHT22;26523;52.504;13.498;2023-07-28T08:27:55;25.60;99.90
40808;DHT22;26523;52.504;13.498;2023-07-28T08:30:24;25.30;99.90
40808;DHT22;26523;52.504;13.498;2023-07-28T08:32:50;25.10;99.90
40808;DHT22;26523;52.504;13.498;2023-07-28T08:35:17;24.70;99.90
40808;DHT22;26523;52.504;13.498;2023-07-28T08:37:44;24.10;99.90
40808;DHT22;26523;52.504;13.498;2023-07-28T08:40:10;23.50;99.90
40808;DHT22;26523;52.504;13.498;2023-07-28T08:42:38;22.90;99.90
40808;DHT22;26523;52.504;13.498;2023-07-28T08:45:10;22.40;99.90
40808;DHT22;26523;52.504;13.498;2023-07-28T08:47:37;21.90;99.90
40808;DHT22;26523;52.504;13.498;2023-07-28T08:50:06;21.90;99.90
40808;DHT22;26523;52.504;13.498;2023-07-28T08:52:33;21.90;99.90
40808;DHT22;26523;52.504;13.498;2023-07-28T08:55:00;22.10;99.90
40808;DHT22;26523;52.504;13.498;2023-07-28T08:57:27;22.40;99.90
40808;DHT22;26523;52.504;13.498;2023-07-28T08:59:53;22.80;99.90
40808;DHT22;26523;52.504;13.498;2023-07-28T09:02:19;23.20;99.90
40808;DHT22;26523;52.504;13.498;2023-07-28T09:04:46;23.40;99.90
40808;DHT22;26523;52.504;13.498;2023-07-28T09:07:13;23.60;99.90
40808;DHT22;26523;52.504;13.498;2023-07-28T09:09:39;23.70;99.90
40808;DHT22;26523;52.504;13.498;2023-07-28T09:12:09;23.50;99.90
40808;DHT22;26523;52.504;13.498;2023-07-28T09:14:36;23.30;99.90
40808;DHT22;26523;52.504;13.498;2023-07-28T09:17:13;23.00;99.90
40808;DHT22;26523;52.504;13.498;2023-07-28T09:19:55;22.80;99.90
40808;DHT22;26523;52.504;13.498;2023-07-28T09:22:21;22.80;99.90
40808;DHT22;26523;52.504;13.498;2023-07-28T09:24:48;22.80;99.90
40808;DHT22;26523;52.504;13.498;2023-07-28T09:27:25;22.50;99.90
40808;DHT22;26523;52.504;13.498;2023-07-28T09:29:53;22.20;99.90
40808;DHT22;26523;52.504;13.498;2023-07-28T09:32:28;21.90;99.90
40808;DHT22;26523;52.504;13.498;2023-07-28T09:35:11;21.90;99.90
40808;DHT22;26523;52.504;13.498;2023-07-28T09:37:40;21.90;99.90
40808;DHT22;26523;52.504;13.498;2023-07-28T09:40:14;22.00;99.90
40808;DHT22;26523;52.504;13.498;2023-07-28T09:42:46;22.50;99.90
40808;DHT22;26523;52.504;13.498;2023-07-28T09:45:17;22.80;99.90
40808;DHT22;26523;52.504;13.498;2023-07-28T09:47:47;23.00;99.90
40808;DHT22;26523;52.504;13.498;2023-07-28T09:50:17;22.80;99.90
40808;DHT22;26523;52.504;13.498;2023-07-28T09:52:46;22.70;99.90
40808;DHT22;26523;52.504;13.498;2023-07-28T09:55:12;22.60;99.90
40808;DHT22;26523;52.504;13.498;2023-07-28T09:57:46;22.60;99.90
40808;DHT22;26523;52.504;13.498;2023-07-28T10:00:16;22.70;99.90
40808;DHT22;26523;52.504;13.498;2023-07-28T10:02:43;22.70;99.90
40808;DHT22;26523;52.504;13.498;2023-07-28T10:05:10;22.60;99.90
40808;DHT22;26523;52.504;13.498;2023-07-28T10:07:39;22.80;99.90
40808;DHT22;26523;52.504;13.498;2023-07-28T10:10:07;23.00;99.90
40808;DHT22;26523;52.504;13.498;2023-07-28T10:12:51;22.90;99.90
40808;DHT22;26523;52.504;13.498;2023-07-28T10:15:28;22.70;99.90
40808;DHT22;26523;52.504;13.498;2023-07-28T10:17:55;22.40;99.90
40808;DHT22;26523;52.504;13.498;2023-07-28T10:23:19;22.10;99.90
40808;DHT22;26523;52.504;13.498;2023-07-28T10:25:46;22.00;99.90
40808;DHT22;26523;52.504;13.498;2023-07-28T10:28:30;22.00;99.90
40808;DHT22;26523;52.504;13.498;2023-07-28T10:30:59;22.10;99.90
40808;DHT22;26523;52.504;13.498;2023-07-28T10:33:33;22.20;99.90
40808;DHT22;26523;52.504;13.498;2023-07-28T10:39:11;22.10;99.90
40808;DHT22;26523;52.504;13.498;2023-07-28T10:41:37;22.10;99.90
40808;DHT22;26523;52.504;13.498;2023-07-28T10:44:03;22.10;99.90
40808;DHT22;26523;52.504;13.498;2023-07-28T10:46:29;21.80;99.90
40808;DHT22;26523;52.504;13.498;2023-07-28T10:48:56;21.50;99.90
40808;DHT22;26523;52.504;13.498;2023-07-28T10:51:27;21.30;99.90
40808;DHT22;26523;52.504;13.498;2023-07-28T10:54:00;21.30;99.90
40808;DHT22;26523;52.504;13.498;2023-07-28T10:56:28;21.50;99.90
40808;DHT22;26523;52.504;13.498;2023-07-28T10:58:58;21.80;99.90
40808;DHT22;26523;52.504;13.498;2023-07-28T11:01:32;22.30;99.90
40808;DHT22;26523;52.504;13.498;2023-07-28T11:04:16;22.60;99.90
40808;DHT22;26523;52.504;13.498;2023-07-28T11:06:45;22.50;99.90
40808;DHT22;26523;52.504;13.498;2023-07-28T11:09:17;22.20;99.90
40808;DHT22;26523;52.504;13.498;2023-07-28T11:11:43;21.70;99.90
40808;DHT22;26523;52.504;13.498;2023-07-28T11:14:11;21.10;99.90
40808;DHT22;26523;52.504;13.498;2023-07-28T11:16:38;20.70;99.90
40808;DHT22;26523;52.504;13.498;2023-07-28T11:19:12;20.20;99.90
40808;DHT22;26523;52.504;13.498;2023-07-28T11:21:42;20.00;99.90
40808;DHT22;26523;52.504;13.498;2023-07-28T11:24:10;19.80;99.90
40808;DHT22;26523;52.504;13.498;2023-07-28T11:26:57;19.70;99.90
40808;DHT22;26523;52.504;13.498;2023-07-28T11:29:23;19.50;99.90
40808;DHT22;26523;52.504;13.498;2023-07-28T11:31:50;19.40;99.90
40808;DHT22;26523;52.504;13.498;2023-07-28T11:34:18;19.40;99.90
40808;DHT22;26523;52.504;13.498;2023-07-28T11:36:44;19.40;99.90
40808;DHT22;26523;52.504;13.498;2023-07-28T11:39:10;19.40;99.90
40808;DHT22;26523;52.504;13.498;2023-07-28T11:41:37;19.30;99.90
40808;DHT22;26523;52.504;13.498;2023-07-28T11:44:03;19.40;99.90
40808;DHT22;26523;52.504;13.498;2023-07-28T11:46:36;19.40;99.90
40808;DHT22;26523;52.504;13.498;2023-07-28T11:49:22;19.50;99.90
40808;DHT22;26523;52.504;13.498;2023-07-28T11:51:51;19.60;99.90
40808;DHT22;26523;52.504;13.498;2023-07-28T11:54:18;19.70;99.90
40808;DHT22;26523;52.504;13.498;2023-07-28T11:56:49;20.00;99.90
40808;DHT22;26523;52.504;13.498;2023-07-28T11:59:16;20.10;99.90
40808;DHT22;26523;52.504;13.498;2023-07-28T12:04:29;20.10;99.90
40808;DHT22;26523;52.504;13.498;2023-07-28T12:07:07;20.20;99.90
40808;DHT22;26523;52.504;13.498;2023-07-28T12:12:18;20.70;99.90
40808;DHT22;26523;52.504;13.498;2023-07-28T12:14:44;20.80;99.90
40808;DHT22;26523;52.504;13.498;2023-07-28T12:17:23;21.00;99.90
40808;DHT22;26523;52.504;13.498;2023-07-28T12:20:06;21.00;99.90
40808;DHT22;26523;52.504;13.498;2023-07-28T12:22:45;21.10;99.90
40808;DHT22;26523;52.504;13.498;2023-07-28T12:25:13;21.10;99.90
40808;DHT22;26523;52.504;13.498;2023-07-28T12:27:40;21.10;99.90
40808;DHT22;26523;52.504;13.498;2023-07-28T12:30:07;21.20;99.90
40808;DHT22;26523;52.504;13.498;2023-07-28T12:32:34;21.20;99.90
40808;DHT22;26523;52.504;13.498;2023-07-28T12:35:00;21.30;99.90
40808;DHT22;26523;52.504;13.498;2023-07-28T12:37:26;21.20;99.90
40808;DHT22;26523;52.504;13.498;2023-07-28T12:39:51;21.20;99.90
40808;DHT22;26523;52.504;13.498;2023-07-28T12:42:17;21.00;99.90
40808;DHT22;26523;52.504;13.498;2023-07-28T12:44:44;21.00;99.90
40808;DHT22;26523;52.504;13.498;2023-07-28T12:47:10;20.80;99.90
40808;DHT22;26523;52.504;13.498;2023-07-28T12:49:36;20.70;99.90
40808;DHT22;26523;52.504;13.498;2023-07-28T12:52:04;20.80;99.90
40808;DHT22;26523;52.504;13.498;2023-07-28T12:54:32;20.90;99.90
40808;DHT22;26523;52.504;13.498;2023-07-28T12:56:58;21.10;99.90
40808;DHT22;26523;52.504;13.498;2023-07-28T12:59:25;21.30;99.90
40808;DHT22;26523;52.504;13.498;2023-07-28T13:01:50;21.50;99.90
40808;DHT22;26523;52.504;13.498;2023-07-28T13:04:16;21.50;99.90
40808;DHT22;26523;52.504;13.498;2023-07-28T13:06:41;21.50;99.90
40808;DHT22;26523;52.504;13.498;2023-07-28T13:09:07;21.60;99.90
40808;DHT22;26523;52.504;13.498;2023-07-28T13:11:34;21.50;99.90
40808;DHT22;26523;52.504;13.498;2023-07-28T13:14:00;21.60;99.90
40808;DHT22;26523;52.504;13.498;2023-07-28T13:16:25;21.60;99.90
40808;DHT22;26523;52.504;13.498;2023-07-28T13:18:52;21.70;99.90
40808;DHT22;26523;52.504;13.498;2023-07-28T13:21:18;21.90;99.90
40808;DHT22;26523;52.504;13.498;2023-07-28T13:23:43;21.90;99.90
40808;DHT22;26523;52.504;13.498;2023-07-28T13:26:10;22.00;99.90
40808;DHT22;26523;52.504;13.498;2023-07-28T13:28:36;22.00;99.90
40808;DHT22;26523;52.504;13.498;2023-07-28T13:31:02;22.10;99.90
40808;DHT22;26523;52.504;13.498;2023-07-28T13:33:28;22.10;99.90
40808;DHT22;26523;52.504;13.498;2023-07-28T13:35:55;22.10;99.90
40808;DHT22;26523;52.504;13.498;2023-07-28T13:38:21;22.20;99.90
40808;DHT22;26523;52.504;13.498;2023-07-28T13:40:48;22.30;99.90
40808;DHT22;26523;52.504;13.498;2023-07-28T13:43:18;22.40;99.90
40808;DHT22;26523;52.504;13.498;2023-07-28T13:45:43;22.30;99.90
40808;DHT22;26523;52.504;13.498;2023-07-28T13:48:09;22.20;99.90
40808;DHT22;26523;52.504;13.498;2023-07-28T13:50:35;22.40;99.90
40808;DHT22;26523;52.504;13.498;2023-07-28T13:53:01;22.40;99.90
40808;DHT22;26523;52.504;13.498;2023-07-28T13:55:27;22.50;99.90
40808;DHT22;26523;52.504;13.498;2023-07-28T13:57:52;22.40;99.90
40808;DHT22;26523;52.504;13.498;2023-07-28T14:00:18;22.50;99.90
40808;DHT22;26523;52.504;13.498;2023-07-28T14:02:44;22.50;99.90
40808;DHT22;26523;52.504;13.498;2023-07-28T14:05:11;22.70;99.90
40808;DHT22;26523;52.504;13.498;2023-07-28T14:07:37;22.70;99.90
40808;DHT22;26523;52.504;13.498;2023-07-28T14:10:03;22.70;99.90
40808;DHT22;26523;52.504;13.498;2023-07-28T14:12:29;22.70;99.90
40808;DHT22;26523;52.504;13.498;2023-07-28T14:14:56;22.70;99.90
40808;DHT22;26523;52.504;13.498;2023-07-28T14:17:22;22.80;99.90
40808;DHT22;26523;52.504;13.498;2023-07-28T14:19:47;22.90;99.90
40808;DHT22;26523;52.504;13.498;2023-07-28T14:22:13;23.00;99.90
40808;DHT22;26523;52.504;13.498;2023-07-28T14:24:41;23.00;99.90
40808;DHT22;26523;52.504;13.498;2023-07-28T14:27:07;23.00;99.90
40808;DHT22;26523;52.504;13.498;2023-07-28T14:29:33;23.10;99.90
40808;DHT22;26523;52.504;13.498;2023-07-28T14:31:59;23.10;99.90
40808;DHT22;26523;52.504;13.498;2023-07-28T14:34:28;23.10;99.90
40808;DHT22;26523;52.504;13.498;2023-07-28T14:37:10;23.10;99.90
40808;DHT22;26523;52.504;13.498;2023-07-28T14:39:38;22.90;99.90
40808;DHT22;26523;52.504;13.498;2023-07-28T14:42:07;23.00;99.90
40808;DHT22;26523;52.504;13.498;2023-07-28T14:44:33;23.00;99.90
40808;DHT22;26523;52.504;13.498;2023-07-28T14:46:59;23.10;99.90
40808;DHT22;26523;52.504;13.498;2023-07-28T14:49:24;23.20;99.90
40808;DHT22;26523;52.504;13.498;2023-07-28T14:51:56;23.00;99.90
40808;DHT22;26523;52.504;13.498;2023-07-28T14:54:21;22.80;99.90
40808;DHT22;26523;52.504;13.498;2023-07-28T14:56:47;22.70;99.90
40808;DHT22;26523;52.504;13.498;2023-07-28T14:59:15;22.50;99.90
40808;DHT22;26523;52.504;13.498;2023-07-28T15:01:42;22.60;99.90
40808;DHT22;26523;52.504;13.498;2023-07-28T15:04:08;22.70;99.90
40808;DHT22;26523;52.504;13.498;2023-07-28T15:06:34;22.70;99.90
40808;DHT22;26523;52.504;13.498;2023-07-28T15:08:59;22.80;99.90
40808;DHT22;26523;52.504;13.498;2023-07-28T15:11:25;22.90;99.90
40808;DHT22;26523;52.504;13.498;2023-07-28T15:13:51;23.00;99.90
40808;DHT22;26523;52.504;13.498;2023-07-28T15:16:16;23.00;99.90
40808;DHT22;26523;52.504;13.498;2023-07-28T15:18:42;23.00;99.90
40808;DHT22;26523;52.504;13.498;2023-07-28T15:21:07;22.90;99.90
40808;DHT22;26523;52.504;13.498;2023-07-28T15:23:33;22.90;99.90
40808;DHT22;26523;52.504;13.498;2023-07-28T15:26:00;22.80;99.90
40808;DHT22;26523;52.504;13.498;2023-07-28T15:28:26;22.70;99.90
40808;DHT22;26523;52.504;13.498;2023-07-28T15:30:52;22.70;99.90